Weather at Touggourt Sidi Madhi Airport

Public forecast

Using degrees Celsius for public forecast. Weather courtesy of forecast.io.

Current aviation weather report (METAR) for Touggourt Sidi Madhi Airport

Retrieved 2020/10/29 11:00 UTC (2 hours ago):

DAUK 291100Z 11003KT CAVOK 22/03 Q1026

Aviation forecast (TAF) for Touggourt Sidi Madhi Airport

Forecast is more than 12 hours old.

Retrieved 2017/11/09 18:03 UTC (3 years ago):

TAF DAUK 091700Z 0918/1009 31010KT 9999 SCT040 BKN100 PROB40 TEMPO 0918/0924 FEW036CB